Time;durP1;ratioP1;P1;durP2;ratioP2;P2;SDS_P1;SDS_P2;PMS_P1;PMS_P2;Temp;Humidity;BMP_temperature;BMP_pressure;BME280_temperature;BME280_humidity;BME280_pressure;Samples;Min_cycle;Max_cycle;Signal;HPM_P1;HPM_P2
2023/04/28 00:01:41;;;;;;;8.25;3.40;;;7.10;99.90;;;;;;4981366;28;20045;-72
2023/04/28 00:04:07;;;;;;;4.23;3.00;;;7.10;99.90;;;;;;4980627;28;20105;-72
2023/04/28 00:06:33;;;;;;;9.82;3.75;;;7.10;99.90;;;;;;4982720;28;20037;-72
2023/04/28 00:08:59;;;;;;;6.80;3.30;;;7.10;99.90;;;;;;4965529;28;20093;-72
2023/04/28 00:22:10;;;;;;;6.82;3.60;;;7.00;99.90;;;;;;5075182;22;20045;-70
2023/04/28 00:24:36;;;;;;;9.47;3.97;;;7.00;99.90;;;;;;5050841;28;20177;-70
2023/04/28 00:27:02;;;;;;;6.53;3.40;;;7.00;99.90;;;;;;5033980;28;20044;-70
2023/04/28 00:29:28;;;;;;;8.50;4.05;;;7.00;99.90;;;;;;5050467;28;20098;-70
2023/04/28 00:31:53;;;;;;;6.30;3.53;;;7.00;99.90;;;;;;5068693;28;20091;-70
2023/04/28 00:34:19;;;;;;;11.50;4.20;;;7.00;99.90;;;;;;5050169;28;20072;-70
2023/04/28 00:36:45;;;;;;;8.23;3.77;;;7.00;99.90;;;;;;5050144;28;20499;-71
2023/04/28 00:39:14;;;;;;;8.98;3.58;;;7.00;99.90;;;;;;5050232;28;20048;-70
2023/04/28 00:41:40;;;;;;;6.13;3.28;;;7.00;99.90;;;;;;5049811;28;20041;-70
2023/04/28 00:44:05;;;;;;;7.83;2.93;;;7.00;99.90;;;;;;5050044;28;20398;-71
2023/04/28 00:46:32;;;;;;;6.90;3.50;;;7.00;99.90;;;;;;5050533;28;20037;-70
2023/04/28 00:48:58;;;;;;;6.13;3.15;;;7.00;99.90;;;;;;5050063;28;20044;-70
2023/04/28 00:51:26;;;;;;;6.53;3.57;;;7.00;99.90;;;;;;5049978;28;20520;-71
2023/04/28 00:53:52;;;;;;;5.97;3.75;;;6.90;99.90;;;;;;5050049;28;20077;-71
2023/04/28 00:56:18;;;;;;;7.03;3.75;;;6.90;99.90;;;;;;5049664;28;20094;-70
2023/04/28 00:58:44;;;;;;;9.07;3.75;;;6.90;99.90;;;;;;5033500;28;20041;-71
2023/04/28 01:01:09;;;;;;;5.30;3.23;;;6.90;99.90;;;;;;5049915;28;20053;-71
2023/04/28 01:03:39;;;;;;;7.83;3.53;;;6.90;99.90;;;;;;5068194;28;20094;-71
2023/04/28 01:06:06;;;;;;;7.40;3.70;;;6.90;99.90;;;;;;5050362;28;20410;-70
2023/04/28 01:08:34;;;;;;;8.25;3.70;;;6.90;99.90;;;;;;5050741;28;20054;-70
2023/04/28 01:11:00;;;;;;;7.88;4.20;;;6.90;99.90;;;;;;5050211;28;20047;-71
2023/04/28 01:13:26;;;;;;;;;;;6.90;99.90;;;;;;5050478;28;20075;-70
2023/04/28 01:15:52;;;;;;;10.48;3.55;;;6.80;99.90;;;;;;5068207;28;19952;-71
2023/04/28 01:18:18;;;;;;;9.77;3.53;;;6.80;99.90;;;;;;5049688;28;20469;-71
2023/04/28 01:20:43;;;;;;;8.53;3.97;;;6.80;99.90;;;;;;5049417;28;20363;-70
2023/04/28 01:23:16;;;;;;;7.27;4.00;;;6.80;99.90;;;;;;5051011;28;20044;-71
2023/04/28 01:25:42;;;;;;;9.40;3.70;;;6.80;99.90;;;;;;5037532;28;20398;-70
2023/04/28 01:28:09;;;;;;;9.10;3.78;;;6.80;99.90;;;;;;5072062;28;20123;-71
2023/04/28 01:30:35;;;;;;;5.32;3.47;;;6.70;99.90;;;;;;5071659;28;20041;-71
2023/04/28 01:33:02;;;;;;;6.40;3.47;;;6.70;99.90;;;;;;5072028;28;20048;-71
2023/04/28 01:35:41;;;;;;;8.60;4.07;;;6.80;99.90;;;;;;5053666;28;20052;-71
2023/04/28 01:38:07;;;;;;;8.00;3.88;;;6.70;99.90;;;;;;5053624;28;20045;-70
2023/04/28 01:40:32;;;;;;;8.57;3.27;;;6.70;99.90;;;;;;5053674;28;20449;-70
2023/04/28 01:42:58;;;;;;;7.27;4.10;;;6.70;99.90;;;;;;5053635;28;20063;-71
2023/04/28 01:45:24;;;;;;;6.37;3.60;;;6.70;99.90;;;;;;5053123;28;20037;-71
2023/04/28 01:47:49;;;;;;;8.23;3.90;;;6.70;99.90;;;;;;5053363;28;20398;-71
2023/04/28 01:50:15;;;;;;;6.77;3.70;;;6.70;99.90;;;;;;5036719;28;20135;-71
2023/04/28 01:52:41;;;;;;;6.47;3.57;;;6.70;99.90;;;;;;5053734;28;20051;-71
2023/04/28 01:55:06;;;;;;;8.00;3.77;;;6.70;99.90;;;;;;5042891;28;20069;-71
2023/04/28 01:57:34;;;;;;;6.40;3.75;;;6.70;99.90;;;;;;5070431;28;20037;-71
2023/04/28 02:00:00;;;;;;;8.40;3.50;;;6.70;99.90;;;;;;5069900;28;20166;-71
2023/04/28 02:02:28;;;;;;;7.35;3.75;;;6.60;99.90;;;;;;5069818;28;20045;-70
2023/04/28 02:04:53;;;;;;;6.37;3.47;;;6.70;99.90;;;;;;5071140;28;20046;-71
2023/04/28 02:07:19;;;;;;;9.40;4.47;;;6.60;99.90;;;;;;5069678;28;20362;-70
2023/04/28 02:09:45;;;;;;;10.73;4.23;;;6.60;99.90;;;;;;5070344;28;20037;-71
2023/04/28 02:12:10;;;;;;;9.83;4.13;;;6.60;99.90;;;;;;5069701;28;20052;-71
2023/04/28 02:14:36;;;;;;;7.20;4.30;;;6.60;99.90;;;;;;5053129;28;20738;-71
2023/04/28 02:17:04;;;;;;;9.50;3.53;;;6.70;99.90;;;;;;5069558;28;20054;-71
2023/04/28 02:19:29;;;;;;;8.50;3.88;;;6.60;99.90;;;;;;5069440;28;20299;-71
2023/04/28 02:21:55;;;;;;;11.73;3.87;;;6.70;99.90;;;;;;5052432;28;20113;-71
2023/04/28 02:24:21;;;;;;;8.83;3.93;;;6.60;99.90;;;;;;5069545;28;20044;-71
2023/04/28 02:26:47;;;;;;;10.43;3.78;;;6.60;99.90;;;;;;5069939;28;20167;-71
2023/04/28 02:29:12;;;;;;;10.53;4.50;;;6.60;99.90;;;;;;5069842;28;20062;-71
2023/04/28 02:31:38;;;;;;;8.33;4.43;;;6.60;99.90;;;;;;5071874;28;20056;-71
2023/04/28 02:34:03;;;;;;;14.10;4.13;;;6.60;99.90;;;;;;5069792;28;20037;-70
2023/04/28 02:36:30;;;;;;;9.97;4.77;;;6.60;99.90;;;;;;5069301;28;20494;-71
2023/04/28 02:38:56;;;;;;;7.45;4.20;;;6.60;99.90;;;;;;5069151;28;20049;-70
2023/04/28 02:41:22;;;;;;;10.00;4.53;;;6.60;99.90;;;;;;5069190;28;20040;-70
2023/04/28 02:43:47;;;;;;;7.97;4.00;;;6.70;99.90;;;;;;5068958;28;20040;-71
2023/04/28 02:46:13;;;;;;;9.33;4.73;;;6.70;99.90;;;;;;5069209;28;20051;-71
2023/04/28 02:48:39;;;;;;;9.87;4.63;;;6.70;99.90;;;;;;5069098;28;20041;-70
2023/04/28 02:51:05;;;;;;;8.73;4.15;;;6.70;99.90;;;;;;5068730;28;20414;-71
2023/04/28 02:53:30;;;;;;;10.37;4.97;;;6.70;99.90;;;;;;5068604;28;20036;-70
2023/04/28 02:55:56;;;;;;;9.47;4.50;;;6.70;99.90;;;;;;5069332;28;20036;-70
2023/04/28 02:58:25;;;;;;;8.13;4.80;;;6.70;99.90;;;;;;5069382;28;20099;-71
2023/04/28 03:00:51;;;;;;;8.85;4.80;;;6.70;99.90;;;;;;5066718;28;20434;-71
2023/04/28 03:03:16;;;;;;;8.87;4.30;;;6.70;99.90;;;;;;5067989;28;20048;-71
2023/04/28 03:05:44;;;;;;;13.37;5.60;;;6.70;99.90;;;;;;5068591;28;20041;-70
2023/04/28 03:08:10;;;;;;;9.73;5.03;;;6.70;99.90;;;;;;5051760;28;20412;-70
2023/04/28 03:10:36;;;;;;;16.60;5.83;;;6.70;99.90;;;;;;5041150;28;20044;-70
2023/04/28 03:13:01;;;;;;;9.70;5.30;;;6.70;99.90;;;;;;5052150;28;20044;-71
2023/04/28 03:15:27;;;;;;;13.47;5.03;;;6.70;99.90;;;;;;5069789;28;20036;-70
2023/04/28 03:17:53;;;;;;;12.27;5.63;;;6.70;99.90;;;;;;5064531;28;20339;-70
2023/04/28 03:20:18;;;;;;;10.33;4.83;;;6.70;99.90;;;;;;5068108;28;20051;-70
2023/04/28 03:22:44;;;;;;;10.67;5.37;;;6.70;99.90;;;;;;5067874;28;20402;-71
2023/04/28 03:25:10;;;;;;;13.60;6.00;;;6.70;99.90;;;;;;5068549;28;20037;-70
2023/04/28 03:27:35;;;;;;;10.57;4.80;;;6.70;99.90;;;;;;5068869;28;20035;-70
2023/04/28 03:30:01;;;;;;;9.50;5.03;;;6.70;99.90;;;;;;5069411;28;20277;-70
2023/04/28 03:32:26;;;;;;;11.20;5.60;;;6.70;99.90;;;;;;5068634;28;20390;-71
2023/04/28 03:34:52;;;;;;;11.27;5.20;;;6.70;99.90;;;;;;5069672;28;20044;-70
2023/04/28 03:37:17;;;;;;;10.20;5.70;;;6.70;99.90;;;;;;5069233;28;20040;-70
2023/04/28 03:39:48;;;;;;;11.60;5.60;;;6.70;99.90;;;;;;5069665;28;20303;-71
2023/04/28 03:42:13;;;;;;;12.63;6.07;;;6.70;99.90;;;;;;5068089;28;20363;-70
2023/04/28 03:44:39;;;;;;;10.80;5.70;;;6.70;99.90;;;;;;5068890;28;20051;-71
2023/04/28 03:47:04;;;;;;;12.87;5.80;;;6.70;99.90;;;;;;5068456;28;20115;-71
2023/04/28 03:49:30;;;;;;;10.90;5.80;;;6.70;99.90;;;;;;5067857;28;20044;-71
2023/04/28 03:51:56;;;;;;;10.10;5.40;;;6.70;99.90;;;;;;5067547;28;20044;-71
2023/04/28 03:54:21;;;;;;;11.50;5.57;;;6.70;99.90;;;;;;5067978;28;20516;-70
2023/04/28 03:56:47;;;;;;;11.33;6.43;;;6.70;99.90;;;;;;5051053;28;20389;-71
2023/04/28 03:59:12;;;;;;;12.80;6.83;;;6.70;99.90;;;;;;5068123;28;20063;-70
2023/04/28 04:01:38;;;;;;;11.90;5.83;;;6.70;99.90;;;;;;5067504;28;20044;-70
2023/04/28 04:04:04;;;;;;;10.47;6.13;;;6.70;99.90;;;;;;5069142;28;20362;-71
2023/04/28 04:06:30;;;;;;;11.80;6.35;;;6.70;99.90;;;;;;5050574;28;20040;-71
2023/04/28 04:08:56;;;;;;;15.32;5.90;;;6.70;99.90;;;;;;5067417;28;20102;-70
2023/04/28 04:11:23;;;;;;;14.37;6.73;;;6.70;99.90;;;;;;5050429;28;20048;-71
2023/04/28 04:13:49;;;;;;;13.15;6.22;;;6.70;99.90;;;;;;5067452;28;20277;-70
2023/04/28 04:16:15;;;;;;;14.27;6.20;;;6.70;99.90;;;;;;5067328;28;20110;-71
2023/04/28 04:18:41;;;;;;;16.33;6.93;;;6.70;99.90;;;;;;5067319;28;20063;-71
2023/04/28 04:21:06;;;;;;;14.27;7.10;;;6.70;99.90;;;;;;5066673;28;20051;-71
2023/04/28 04:23:32;;;;;;;12.47;6.83;;;6.70;99.90;;;;;;5066796;28;20071;-71
2023/04/28 04:25:57;;;;;;;14.80;6.50;;;6.70;99.90;;;;;;5067062;28;20045;-70
2023/04/28 04:28:23;;;;;;;15.27;6.63;;;6.70;99.90;;;;;;5067241;28;20072;-71
2023/04/28 04:30:49;;;;;;;13.97;7.13;;;6.70;99.90;;;;;;5067281;28;20189;-70
2023/04/28 04:33:15;;;;;;;11.97;5.60;;;6.70;99.90;;;;;;5066947;28;20040;-70
2023/04/28 04:35:40;;;;;;;15.00;6.88;;;6.70;99.90;;;;;;5066640;28;20047;-71
2023/04/28 04:38:06;;;;;;;14.07;6.73;;;6.70;99.90;;;;;;5068156;28;20521;-71
2023/04/28 04:40:33;;;;;;;16.48;7.05;;;6.70;99.90;;;;;;5067226;28;20083;-70
2023/04/28 04:43:01;;;;;;;16.75;6.82;;;6.70;99.90;;;;;;5067490;28;20040;-71
2023/04/28 04:45:27;;;;;;;18.70;6.83;;;6.70;99.90;;;;;;5066652;28;20090;-71
2023/04/28 04:47:52;;;;;;;13.43;6.50;;;6.70;99.90;;;;;;5068071;28;20036;-71
2023/04/28 04:50:21;;;;;;;15.38;8.18;;;6.70;99.90;;;;;;5068140;28;20079;-71
2023/04/28 04:52:47;;;;;;;17.40;7.03;;;6.70;99.90;;;;;;5066849;28;20091;-70
2023/04/28 04:55:12;;;;;;;16.70;7.80;;;6.70;99.90;;;;;;5067586;28;20041;-70
2023/04/28 04:57:38;;;;;;;16.40;7.30;;;6.70;99.90;;;;;;5068225;28;20406;-70
2023/04/28 05:00:04;;;;;;;13.87;6.70;;;6.70;99.90;;;;;;5066959;28;20544;-71
2023/04/28 05:02:30;;;;;;;15.57;7.82;;;6.70;99.90;;;;;;5066338;28;20041;-70
2023/04/28 05:04:55;;;;;;;14.32;7.22;;;6.70;99.90;;;;;;5049901;28;20040;-71
2023/04/28 05:07:21;;;;;;;13.43;6.73;;;6.70;99.90;;;;;;5066416;28;20032;-70
2023/04/28 05:09:47;;;;;;;14.20;7.47;;;6.70;99.90;;;;;;5068388;28;20095;-71
2023/04/28 05:12:12;;;;;;;15.53;6.97;;;6.70;99.90;;;;;;5066563;28;20055;-71
2023/04/28 05:14:38;;;;;;;14.53;6.57;;;6.80;99.90;;;;;;5066700;28;20040;-70
2023/04/28 05:17:03;;;;;;;13.80;7.10;;;6.80;99.90;;;;;;5066060;28;20410;-71
2023/04/28 05:19:29;;;;;;;13.60;6.70;;;6.90;99.90;;;;;;5066245;28;20037;-70
2023/04/28 05:21:55;;;;;;;13.27;6.10;;;6.90;99.90;;;;;;5066080;28;20517;-71
2023/04/28 05:24:22;;;;;;;13.80;6.83;;;6.90;99.90;;;;;;5067302;28;20402;-71
2023/04/28 05:26:51;;;;;;;12.40;6.43;;;6.90;99.90;;;;;;5066223;28;20045;-71
2023/04/28 05:29:17;;;;;;;17.05;7.53;;;6.90;99.90;;;;;;5066454;28;20048;-71
2023/04/28 05:31:43;;;;;;;15.37;7.10;;;7.00;99.90;;;;;;5065862;28;20098;-70
2023/04/28 05:34:08;;;;;;;15.30;6.60;;;7.00;99.90;;;;;;5049488;28;20095;-70
2023/04/28 05:36:34;;;;;;;15.93;7.50;;;6.90;99.90;;;;;;5066239;28;20036;-71
2023/04/28 05:39:00;;;;;;;16.38;7.25;;;7.00;99.90;;;;;;5067751;28;20041;-71
2023/04/28 05:41:26;;;;;;;15.93;7.65;;;7.00;99.90;;;;;;5067352;28;20040;-71
2023/04/28 05:43:51;;;;;;;16.50;7.97;;;7.00;99.90;;;;;;5065915;28;20120;-71
2023/04/28 05:46:20;;;;;;;12.90;6.53;;;7.00;99.90;;;;;;5049636;28;20045;-71
2023/04/28 05:48:45;;;;;;;14.95;7.22;;;7.00;99.90;;;;;;5067136;28;20048;-71
2023/04/28 05:51:11;;;;;;;13.87;6.47;;;7.10;99.90;;;;;;5049124;28;20044;-71
2023/04/28 05:53:37;;;;;;;16.87;7.17;;;7.10;99.90;;;;;;5066886;28;20075;-71
2023/04/28 05:56:02;;;;;;;13.73;7.00;;;7.10;99.90;;;;;;5049139;28;20103;-70
2023/04/28 05:58:28;;;;;;;13.67;6.80;;;7.20;99.90;;;;;;5043508;28;20093;-76
2023/04/28 06:00:54;;;;;;;16.40;8.02;;;7.20;99.90;;;;;;5047545;28;20045;-72
2023/04/28 06:03:20;;;;;;;17.07;7.73;;;7.20;99.90;;;;;;5044670;28;20110;-74
2023/04/28 06:05:45;;;;;;;15.70;8.00;;;7.30;99.90;;;;;;5045292;28;20044;-73
2023/04/28 06:08:11;;;;;;;18.67;8.10;;;7.30;99.90;;;;;;5048103;28;20040;-75
2023/04/28 06:10:37;;;;;;;16.47;7.03;;;7.30;99.90;;;;;;5051276;28;20119;-72
2023/04/28 06:13:03;;;;;;;14.77;8.00;;;7.30;99.90;;;;;;5052446;28;20090;-71
2023/04/28 06:15:29;;;;;;;;;;;7.30;99.90;;;;;;5052487;28;20395;-71
2023/04/28 06:17:55;;;;;;;14.57;6.97;;;7.30;99.90;;;;;;5031028;28;20027;-70
2023/04/28 06:20:20;;;;;;;12.73;6.67;;;7.30;99.90;;;;;;5049245;28;20072;-75
2023/04/28 06:22:46;;;;;;;15.07;7.80;;;7.30;99.90;;;;;;5055978;28;20059;-71
2023/04/28 06:25:12;;;;;;;17.40;6.77;;;7.40;99.90;;;;;;5052363;28;20047;-71
2023/04/28 06:27:37;;;;;;;16.97;7.63;;;7.40;99.90;;;;;;5053008;28;20047;-71
2023/04/28 06:30:03;;;;;;;19.57;7.67;;;7.50;99.90;;;;;;5053032;28;20127;-71
2023/04/28 06:32:29;;;;;;;17.40;6.63;;;7.50;99.90;;;;;;5052166;28;20128;-71
2023/04/28 06:34:55;;;;;;;13.70;6.83;;;7.60;99.90;;;;;;5052605;28;20128;-71
2023/04/28 06:37:20;;;;;;;18.27;6.90;;;7.60;99.90;;;;;;5052342;28;20056;-71
2023/04/28 06:39:46;;;;;;;13.20;7.27;;;7.60;99.90;;;;;;5070957;28;20044;-72
2023/04/28 06:42:12;;;;;;;16.48;7.75;;;7.60;99.90;;;;;;5052325;28;20767;-72
2023/04/28 06:44:37;;;;;;;16.73;6.67;;;7.70;99.90;;;;;;5051964;28;20040;-72
2023/04/28 06:47:03;;;;;;;17.10;6.97;;;7.80;99.90;;;;;;5051150;28;20047;-76
2023/04/28 06:49:29;;;;;;;13.27;7.30;;;7.80;99.90;;;;;;5052642;28;20139;-71
2023/04/28 06:51:54;;;;;;;13.53;6.93;;;7.80;99.90;;;;;;5035150;28;20088;-72
2023/04/28 06:54:20;;;;;;;11.57;6.77;;;7.90;99.90;;;;;;5070663;28;20051;-71
2023/04/28 06:56:45;;;;;;;16.60;6.80;;;7.90;99.90;;;;;;5070607;28;20036;-71
2023/04/28 06:59:11;;;;;;;17.33;7.27;;;7.90;99.90;;;;;;5035513;28;20067;-71
2023/04/28 07:01:37;;;;;;;13.50;6.77;;;7.90;99.90;;;;;;5051868;28;20048;-71
2023/04/28 07:04:03;;;;;;;12.60;5.80;;;8.00;99.90;;;;;;5051980;28;20079;-71
2023/04/28 07:06:30;;;;;;;13.90;7.27;;;8.00;99.90;;;;;;5052288;28;20036;-71
2023/04/28 07:08:56;;;;;;;12.82;6.90;;;8.00;99.90;;;;;;5070122;28;20048;-71
2023/04/28 07:11:22;;;;;;;12.53;6.50;;;8.00;99.90;;;;;;5052501;28;20037;-71
2023/04/28 07:13:50;;;;;;;12.85;6.82;;;8.10;99.90;;;;;;5078551;28;20478;-71
2023/04/28 07:16:16;;;;;;;11.18;6.43;;;8.10;99.90;;;;;;5035205;28;20051;-71
2023/04/28 07:18:42;;;;;;;13.02;7.07;;;8.10;99.90;;;;;;5035147;28;20398;-71
2023/04/28 07:21:07;;;;;;;13.63;6.83;;;8.20;99.90;;;;;;5051645;28;20044;-71
2023/04/28 07:23:33;;;;;;;17.30;7.43;;;8.20;99.90;;;;;;5051724;28;20040;-71
2023/04/28 07:25:59;;;;;;;15.80;7.37;;;8.40;99.90;;;;;;5075262;28;20115;-71
2023/04/28 07:28:25;;;;;;;14.83;8.07;;;8.60;99.90;;;;;;5052033;28;20037;-71
2023/04/28 07:30:50;;;;;;;19.05;7.97;;;8.70;99.90;;;;;;5064116;28;20118;-71
2023/04/28 07:33:16;;;;;;;15.93;7.23;;;8.70;99.90;;;;;;5090184;28;20416;-71
2023/04/28 07:35:42;;;;;;;11.83;6.97;;;8.70;99.90;;;;;;5072732;28;20093;-71
2023/04/28 07:38:07;;;;;;;17.83;7.17;;;8.70;99.90;;;;;;5072116;28;20055;-71
2023/04/28 07:40:33;;;;;;;13.20;7.27;;;8.70;99.90;;;;;;5071703;28;20127;-71
2023/04/28 07:42:59;;;;;;;15.07;6.87;;;8.70;99.90;;;;;;5089594;28;20135;-71
2023/04/28 07:45:25;;;;;;;13.97;6.73;;;8.70;99.90;;;;;;5071684;28;20051;-71
2023/04/28 07:47:50;;;;;;;17.88;6.40;;;8.70;99.90;;;;;;5071118;28;20048;-72
2023/04/28 07:50:16;;;;;;;17.03;7.00;;;8.70;99.90;;;;;;5071322;28;20497;-71
2023/04/28 07:52:43;;;;;;;14.82;6.78;;;8.70;99.90;;;;;;5064374;28;20044;-71
2023/04/28 07:55:09;;;;;;;13.13;6.90;;;8.70;99.90;;;;;;5061203;28;20048;-71
2023/04/28 07:57:36;;;;;;;15.53;7.33;;;8.60;99.90;;;;;;5066370;28;20055;-71
2023/04/28 08:00:02;;;;;;;12.15;6.45;;;8.60;99.90;;;;;;5070152;28;20044;-72
2023/04/28 08:02:27;;;;;;;11.85;6.38;;;8.60;99.90;;;;;;5051093;28;20508;-72
2023/04/28 08:04:53;;;;;;;15.43;7.07;;;8.60;99.90;;;;;;5070921;28;20044;-71
2023/04/28 08:07:19;;;;;;;14.63;7.23;;;8.50;99.90;;;;;;5089078;28;20050;-71
2023/04/28 08:09:47;;;;;;;12.90;7.40;;;8.60;99.90;;;;;;5071067;28;20080;-72
2023/04/28 08:12:13;;;;;;;18.05;7.32;;;8.50;99.90;;;;;;5070693;28;20413;-71
2023/04/28 08:14:39;;;;;;;;;;;8.50;99.90;;;;;;5060252;28;20105;-71
2023/04/28 08:17:04;;;;;;;16.15;7.82;;;8.50;99.90;;;;;;5056830;28;19916;-71
2023/04/28 08:19:30;;;;;;;14.27;6.67;;;8.60;99.90;;;;;;5067075;28;20079;-71
2023/04/28 08:21:56;;;;;;;14.30;7.43;;;8.60;99.90;;;;;;5066521;28;20482;-72
2023/04/28 08:24:21;;;;;;;12.90;7.17;;;8.60;99.90;;;;;;5069028;28;20557;-72
2023/04/28 08:26:48;;;;;;;15.30;8.47;;;8.70;99.90;;;;;;5067088;28;20075;-71
2023/04/28 08:29:13;;;;;;;20.50;8.55;;;8.80;99.90;;;;;;5050179;28;20456;-72
2023/04/28 08:31:39;;;;;;;16.77;8.20;;;8.80;99.90;;;;;;5050386;28;20056;-72
2023/04/28 08:34:04;;;;;;;14.13;7.53;;;9.00;99.90;;;;;;5067798;28;20124;-72
2023/04/28 08:36:32;;;;;;;12.63;7.30;;;9.10;99.90;;;;;;5068487;28;20076;-72
2023/04/28 08:38:59;;;;;;;16.27;7.80;;;9.20;99.90;;;;;;5067934;28;20094;-72
2023/04/28 08:41:26;;;;;;;13.32;7.07;;;9.30;99.90;;;;;;5058459;28;20135;-72
2023/04/28 08:43:53;;;;;;;16.95;7.88;;;9.40;99.90;;;;;;5058286;28;20417;-72
2023/04/28 08:46:20;;;;;;;15.07;7.45;;;9.50;99.90;;;;;;5068044;28;20040;-72
2023/04/28 08:48:48;;;;;;;16.25;8.15;;;9.60;99.90;;;;;;5068074;28;20461;-72
2023/04/28 08:51:31;;;;;;;12.18;7.28;;;9.60;99.90;;;;;;5050187;28;20037;-72
2023/04/28 08:53:59;;;;;;;13.02;7.35;;;9.60;99.90;;;;;;5067950;28;20321;-72
2023/04/28 08:56:30;;;;;;;17.15;7.95;;;9.60;99.90;;;;;;5033274;28;20389;-72
2023/04/28 08:58:57;;;;;;;16.02;8.15;;;9.60;99.90;;;;;;5049112;28;20032;-73
2023/04/28 09:01:22;;;;;;;;;;;9.60;99.90;;;;;;5062290;28;20157;-72
2023/04/28 09:03:48;;;;;;;16.67;7.47;;;9.70;99.90;;;;;;5070245;28;20386;-72
2023/04/28 09:06:14;;;;;;;12.73;6.93;;;9.70;99.90;;;;;;5070393;28;20055;-72
2023/04/28 09:08:39;;;;;;;15.20;7.33;;;9.80;99.90;;;;;;5082414;28;20337;-71
2023/04/28 09:11:09;;;;;;;15.40;7.80;;;9.90;99.90;;;;;;5056971;28;20051;-72
2023/04/28 09:13:36;;;;;;;12.70;7.50;;;10.00;99.90;;;;;;5067958;28;20455;-71
2023/04/28 09:16:03;;;;;;;13.63;7.18;;;10.10;99.90;;;;;;5033801;28;20094;-71
2023/04/28 09:18:31;;;;;;;16.60;7.85;;;10.20;99.90;;;;;;5042077;28;20047;-71
2023/04/28 09:21:09;;;;;;;15.93;8.13;;;10.30;99.90;;;;;;5057543;28;20067;-71
2023/04/28 09:23:47;;;;;;;17.30;8.27;;;10.40;99.90;;;;;;5068056;28;20036;-71
2023/04/28 09:26:13;;;;;;;12.20;7.18;;;10.50;99.90;;;;;;5049693;28;20036;-78
2023/04/28 09:28:39;;;;;;;12.37;6.93;;;10.70;99.90;;;;;;5041614;28;20112;-76
2023/04/28 09:31:05;;;;;;;14.52;7.35;;;10.70;99.90;;;;;;5044179;28;20459;-77
2023/04/28 09:33:31;;;;;;;14.00;7.72;;;10.80;99.90;;;;;;5043251;28;20060;-77
2023/04/28 09:35:57;;;;;;;;;;;10.90;99.90;;;;;;5042781;28;20417;-77
2023/04/28 09:38:23;;;;;;;11.32;6.47;;;11.00;99.90;;;;;;5047068;28;19992;-76
2023/04/28 09:40:57;;;;;;;13.30;6.75;;;11.10;99.90;;;;;;5028048;28;20113;-77
2023/04/28 09:43:33;;;;;;;14.60;7.85;;;11.10;99.90;;;;;;5036613;28;20086;-77
2023/04/28 09:46:04;;;;;;;12.38;7.20;;;11.10;99.90;;;;;;5045334;28;20127;-76
2023/04/28 09:48:35;;;;;;;16.10;7.15;;;11.10;99.90;;;;;;5039424;28;20049;-76
2023/04/28 09:51:06;;;;;;;11.77;7.07;;;11.10;99.90;;;;;;5028028;28;20117;-76
2023/04/28 09:53:34;;;;;;;13.75;7.50;;;11.10;99.90;;;;;;5066498;28;20036;-76
2023/04/28 09:56:03;;;;;;;16.23;7.57;;;11.20;99.90;;;;;;5063315;28;20124;-76
2023/04/28 09:58:31;;;;;;;14.65;7.28;;;11.30;99.90;;;;;;5029624;28;20189;-75
2023/04/28 10:00:58;;;;;;;12.93;6.65;;;11.30;99.90;;;;;;5046437;28;20465;-75
2023/04/28 10:03:26;;;;;;;12.23;7.30;;;11.40;99.90;;;;;;5048412;28;20072;-76
2023/04/28 10:05:53;;;;;;;13.40;6.47;;;11.50;99.90;;;;;;5036245;28;20037;-75
2023/04/28 10:08:23;;;;;;;12.25;7.00;;;11.70;99.90;;;;;;5045626;28;20052;-75
2023/04/28 10:10:51;;;;;;;15.10;7.13;;;11.70;99.90;;;;;;5062531;28;20080;-75
2023/04/28 10:13:18;;;;;;;11.88;6.38;;;11.80;99.90;;;;;;5030711;28;20099;-76
2023/04/28 10:15:45;;;;;;;13.35;7.20;;;11.80;99.90;;;;;;5053154;28;20055;-70
2023/04/28 10:18:14;;;;;;;10.98;7.35;;;11.90;99.90;;;;;;5073969;28;20052;-72
2023/04/28 10:20:57;;;;;;;12.77;7.78;;;12.00;99.90;;;;;;5070779;28;20048;-71
2023/04/28 10:23:56;;;;;;;11.05;6.85;;;12.10;99.90;;;;;;5050198;28;20072;-71
2023/04/28 10:26:35;;;;;;;15.38;8.07;;;12.20;99.90;;;;;;5037926;28;20047;-72
2023/04/28 10:29:01;;;;;;;14.38;8.75;;;12.20;99.90;;;;;;5062023;28;20045;-71
2023/04/28 10:31:27;;;;;;;14.93;6.83;;;12.30;99.90;;;;;;5071181;28;20486;-71
2023/04/28 10:33:53;;;;;;;11.00;6.90;;;12.30;99.90;;;;;;5056947;28;20616;-71
2023/04/28 10:36:49;;;;;;;14.63;6.57;;;12.40;99.90;;;;;;5070271;28;20119;-71
2023/04/28 10:39:15;;;;;;;13.43;6.88;;;12.40;99.90;;;;;;5045821;28;20056;-71
2023/04/28 10:41:41;;;;;;;14.68;6.47;;;12.40;99.90;;;;;;5055355;28;20123;-71
2023/04/28 10:44:28;;;;;;;13.80;7.07;;;12.30;99.90;;;;;;5075637;28;20556;-71
2023/04/28 10:47:06;;;;;;;14.40;7.20;;;12.30;99.90;;;;;;5072600;28;20363;-71
2023/04/28 10:50:03;;;;;;;13.52;6.63;;;12.30;99.90;;;;;;5055938;28;20040;-71
2023/04/28 10:52:31;;;;;;;11.80;6.57;;;12.30;99.90;;;;;;5032342;28;20045;-71
2023/04/28 10:55:31;;;;;;;12.30;6.65;;;12.30;99.90;;;;;;5016212;28;20045;-71
2023/04/28 10:58:15;;;;;;;12.95;7.18;;;12.40;99.90;;;;;;5050853;28;20190;-71
2023/04/28 11:00:41;;;;;;;12.25;7.15;;;12.40;99.90;;;;;;5050265;28;20102;-72
2023/04/28 11:03:07;;;;;;;12.98;6.75;;;12.40;99.90;;;;;;5050432;28;20216;-71
2023/04/28 11:05:36;;;;;;;12.80;7.50;;;12.40;99.90;;;;;;5045504;28;20051;-71
2023/04/28 11:08:30;;;;;;;12.60;7.00;;;12.40;99.90;;;;;;5050637;28;20051;-71
2023/04/28 11:11:13;;;;;;;12.25;7.00;;;12.50;99.90;;;;;;5069895;28;20074;-71
2023/04/28 11:13:39;;;;;;;12.82;6.22;;;12.50;99.90;;;;;;5052316;28;20041;-71
2023/04/28 11:16:05;;;;;;;9.05;6.43;;;12.60;99.90;;;;;;5052044;28;20402;-71
2023/04/28 11:18:43;;;;;;;;;;;12.60;99.90;;;;;;5070336;28;20051;-71
2023/04/28 11:21:10;;;;;;;12.45;6.35;;;12.60;99.90;;;;;;5058507;28;19921;-71
2023/04/28 11:23:38;;;;;;;11.38;6.22;;;12.60;99.90;;;;;;5066172;28;20059;-71
2023/04/28 11:26:04;;;;;;;11.80;6.30;;;12.60;99.90;;;;;;5051820;28;20154;-71
2023/04/28 11:28:30;;;;;;;10.18;5.88;;;12.70;99.90;;;;;;5069961;28;20036;-71
2023/04/28 11:31:12;;;;;;;10.13;6.50;;;12.70;99.90;;;;;;5069686;28;20048;-71
2023/04/28 11:33:40;;;;;;;10.48;5.95;;;12.70;99.90;;;;;;5068701;28;20084;-71
2023/04/28 11:36:06;;;;;;;12.00;5.85;;;12.70;99.90;;;;;;5068706;28;20493;-71
2023/04/28 11:38:43;;;;;;;11.45;6.32;;;12.70;99.90;;;;;;5069427;28;20033;-71
2023/04/28 11:41:08;;;;;;;;;;;12.70;99.90;;;;;;5069394;28;20053;-71
2023/04/28 11:43:35;;;;;;;11.55;6.50;;;12.60;99.90;;;;;;5053643;28;20374;-71
2023/04/28 11:46:00;;;;;;;12.93;6.30;;;12.60;99.90;;;;;;5069738;28;20090;-71
2023/04/28 11:48:26;;;;;;;9.70;5.80;;;12.60;99.90;;;;;;5067935;28;20440;-71
2023/04/28 11:50:52;;;;;;;9.75;6.15;;;12.60;99.90;;;;;;5067863;28;20051;-71
2023/04/28 11:53:19;;;;;;;10.82;6.05;;;12.60;99.90;;;;;;5068168;28;20063;-71
2023/04/28 11:55:44;;;;;;;9.45;6.22;;;12.60;99.90;;;;;;5068114;28;20048;-72
2023/04/28 11:58:18;;;;;;;9.40;5.80;;;12.60;99.90;;;;;;5068284;28;20581;-71
2023/04/28 12:00:43;;;;;;;10.38;6.15;;;12.70;99.90;;;;;;5069175;28;20292;-72
2023/04/28 12:03:09;;;;;;;11.83;6.70;;;12.70;99.90;;;;;;5069392;28;20112;-72
2023/04/28 12:05:43;;;;;;;11.35;6.72;;;12.60;99.90;;;;;;5067932;28;20402;-71
2023/04/28 12:08:09;;;;;;;12.57;6.50;;;12.60;99.90;;;;;;5069251;28;20093;-71
2023/04/28 12:10:41;;;;;;;11.10;7.18;;;12.60;99.90;;;;;;5087489;22;20134;-89
2023/04/28 12:13:16;;;;;;;11.27;7.22;;;12.70;99.90;;;;;;5026545;28;20051;-87
2023/04/28 12:15:42;;;;;;;11.15;6.70;;;12.70;99.90;;;;;;5047135;28;20268;-87
2023/04/28 12:18:11;;;;;;;16.75;7.28;;;12.80;99.90;;;;;;5034785;28;20164;-86
2023/04/28 12:20:37;;;;;;;12.13;7.30;;;12.90;99.90;;;;;;5033516;28;20060;-88
2023/04/28 12:23:03;;;;;;;10.88;6.63;;;13.00;99.90;;;;;;5054219;28;20043;-86
2023/04/28 12:25:29;;;;;;;13.48;7.18;;;13.10;99.90;;;;;;5028645;28;20036;-88
2023/04/28 12:28:18;;;;;;;12.18;7.13;;;13.40;99.90;;;;;;5032832;28;20527;-87
2023/04/28 12:30:46;;;;;;;13.52;6.63;;;13.60;99.90;;;;;;5004873;28;20131;-88
2023/04/28 12:33:25;;;;;;;11.02;6.75;;;13.70;99.90;;;;;;5035932;28;20047;-88
2023/04/28 12:35:53;;;;;;;12.50;7.18;;;13.70;99.90;;;;;;5050873;28;20124;-90
2023/04/28 12:38:19;;;;;;;8.32;6.35;;;13.70;99.90;;;;;;5030971;28;20044;-90
2023/04/28 12:40:48;;;;;;;12.43;6.88;;;13.70;99.90;;;;;;5034312;28;20147;-89
2023/04/28 12:43:14;;;;;;;11.77;7.13;;;13.70;99.90;;;;;;5048407;22;20071;-73
2023/04/28 12:45:40;;;;;;;11.93;7.65;;;13.70;99.90;;;;;;5017421;28;20486;-73
2023/04/28 12:48:06;;;;;;;10.00;6.50;;;13.70;99.90;;;;;;5016907;28;20073;-73
2023/04/28 12:50:32;;;;;;;;;;;13.60;99.90;;;;;;5018762;28;20538;-73
2023/04/28 12:52:58;;;;;;;11.77;8.15;;;13.60;99.90;;;;;;5016518;28;19924;-73
2023/04/28 12:55:24;;;;;;;13.82;8.07;;;13.60;99.90;;;;;;5017354;28;20343;-74
2023/04/28 12:57:50;;;;;;;;;;;13.60;99.90;;;;;;5017385;28;20041;-73
2023/04/28 13:00:19;;;;;;;12.40;7.45;;;13.50;99.90;;;;;;5015571;28;20327;-73